sensor_id;sensor_type;location;lat;lon;timestamp;P1;durP1;ratioP1;P2;durP2;ratioP2
7213;SDS011;3648;50.614;13.830;2022-11-21T00:00:21;104.37;;;44.07;;
7213;SDS011;3648;50.614;13.830;2022-11-21T00:02:48;88.83;;;41.23;;
7213;SDS011;3648;50.614;13.830;2022-11-21T00:05:16;94.03;;;41.03;;
7213;SDS011;3648;50.614;13.830;2022-11-21T00:07:43;86.87;;;40.77;;
7213;SDS011;3648;50.614;13.830;2022-11-21T00:10:10;86.67;;;40.57;;
7213;SDS011;3648;50.614;13.830;2022-11-21T00:12:37;90.23;;;40.83;;
7213;SDS011;3648;50.614;13.830;2022-11-21T00:15:06;92.30;;;40.47;;
7213;SDS011;3648;50.614;13.830;2022-11-21T00:17:34;94.17;;;42.43;;
7213;SDS011;3648;50.614;13.830;2022-11-21T00:20:01;80.83;;;39.20;;
7213;SDS011;3648;50.614;13.830;2022-11-21T00:22:28;78.40;;;39.77;;
7213;SDS011;3648;50.614;13.830;2022-11-21T00:24:56;94.07;;;40.57;;
7213;SDS011;3648;50.614;13.830;2022-11-21T00:27:23;88.80;;;40.40;;
7213;SDS011;3648;50.614;13.830;2022-11-21T00:29:49;92.87;;;41.20;;
7213;SDS011;3648;50.614;13.830;2022-11-21T00:32:18;89.57;;;40.60;;
7213;SDS011;3648;50.614;13.830;2022-11-21T00:34:45;87.37;;;39.97;;
7213;SDS011;3648;50.614;13.830;2022-11-21T00:37:12;92.00;;;43.33;;
7213;SDS011;3648;50.614;13.830;2022-11-21T00:39:38;97.10;;;44.87;;
7213;SDS011;3648;50.614;13.830;2022-11-21T00:42:05;100.13;;;43.53;;
7213;SDS011;3648;50.614;13.830;2022-11-21T00:44:32;97.23;;;41.23;;
7213;SDS011;3648;50.614;13.830;2022-11-21T00:46:59;98.37;;;41.37;;
7213;SDS011;3648;50.614;13.830;2022-11-21T00:49:27;91.47;;;40.53;;
7213;SDS011;3648;50.614;13.830;2022-11-21T00:51:54;87.40;;;39.40;;
7213;SDS011;3648;50.614;13.830;2022-11-21T00:54:21;94.10;;;40.97;;
7213;SDS011;3648;50.614;13.830;2022-11-21T00:56:48;90.50;;;41.13;;
7213;SDS011;3648;50.614;13.830;2022-11-21T00:59:15;90.73;;;41.00;;
7213;SDS011;3648;50.614;13.830;2022-11-21T01:01:42;89.63;;;40.17;;
7213;SDS011;3648;50.614;13.830;2022-11-21T01:04:09;85.20;;;40.37;;
7213;SDS011;3648;50.614;13.830;2022-11-21T01:06:37;84.50;;;39.27;;
7213;SDS011;3648;50.614;13.830;2022-11-21T01:09:04;85.97;;;39.20;;
7213;SDS011;3648;50.614;13.830;2022-11-21T01:11:31;83.37;;;39.53;;
7213;SDS011;3648;50.614;13.830;2022-11-21T01:13:59;87.87;;;40.03;;
7213;SDS011;3648;50.614;13.830;2022-11-21T01:16:26;77.33;;;36.40;;
7213;SDS011;3648;50.614;13.830;2022-11-21T01:18:54;81.00;;;39.97;;
7213;SDS011;3648;50.614;13.830;2022-11-21T01:21:23;82.17;;;37.80;;
7213;SDS011;3648;50.614;13.830;2022-11-21T01:23:52;84.17;;;38.80;;
7213;SDS011;3648;50.614;13.830;2022-11-21T01:26:20;75.73;;;36.33;;
7213;SDS011;3648;50.614;13.830;2022-11-21T01:28:48;71.40;;;36.30;;
7213;SDS011;3648;50.614;13.830;2022-11-21T01:31:16;68.57;;;37.13;;
7213;SDS011;3648;50.614;13.830;2022-11-21T01:33:44;72.37;;;36.77;;
7213;SDS011;3648;50.614;13.830;2022-11-21T01:36:12;77.63;;;37.37;;
7213;SDS011;3648;50.614;13.830;2022-11-21T01:38:41;74.73;;;38.40;;
7213;SDS011;3648;50.614;13.830;2022-11-21T01:41:11;80.97;;;37.30;;
7213;SDS011;3648;50.614;13.830;2022-11-21T01:43:40;64.93;;;35.60;;
7213;SDS011;3648;50.614;13.830;2022-11-21T01:46:09;70.73;;;35.40;;
7213;SDS011;3648;50.614;13.830;2022-11-21T01:48:39;70.53;;;34.40;;
7213;SDS011;3648;50.614;13.830;2022-11-21T01:51:11;70.33;;;35.83;;
7213;SDS011;3648;50.614;13.830;2022-11-21T01:53:43;67.73;;;33.93;;
7213;SDS011;3648;50.614;13.830;2022-11-21T01:56:16;77.83;;;35.80;;
7213;SDS011;3648;50.614;13.830;2022-11-21T01:58:44;76.37;;;35.33;;
7213;SDS011;3648;50.614;13.830;2022-11-21T02:01:13;69.93;;;36.87;;
7213;SDS011;3648;50.614;13.830;2022-11-21T02:03:40;66.30;;;33.60;;
7213;SDS011;3648;50.614;13.830;2022-11-21T02:06:09;66.00;;;33.60;;
7213;SDS011;3648;50.614;13.830;2022-11-21T02:08:37;70.90;;;33.40;;
7213;SDS011;3648;50.614;13.830;2022-11-21T02:11:09;64.57;;;34.70;;
7213;SDS011;3648;50.614;13.830;2022-11-21T02:13:42;67.27;;;34.03;;
7213;SDS011;3648;50.614;13.830;2022-11-21T02:16:09;62.90;;;33.77;;
7213;SDS011;3648;50.614;13.830;2022-11-21T02:18:37;66.83;;;34.17;;
7213;SDS011;3648;50.614;13.830;2022-11-21T02:21:06;66.40;;;33.87;;
7213;SDS011;3648;50.614;13.830;2022-11-21T02:23:39;66.87;;;35.00;;
7213;SDS011;3648;50.614;13.830;2022-11-21T02:26:11;66.50;;;32.27;;
7213;SDS011;3648;50.614;13.830;2022-11-21T02:28:38;68.60;;;34.47;;
7213;SDS011;3648;50.614;13.830;2022-11-21T02:31:06;64.97;;;33.03;;
7213;SDS011;3648;50.614;13.830;2022-11-21T02:33:33;69.17;;;35.07;;
7213;SDS011;3648;50.614;13.830;2022-11-21T02:36:00;69.80;;;35.33;;
7213;SDS011;3648;50.614;13.830;2022-11-21T02:38:28;62.33;;;33.87;;
7213;SDS011;3648;50.614;13.830;2022-11-21T02:40:59;65.93;;;35.63;;
7213;SDS011;3648;50.614;13.830;2022-11-21T02:43:34;72.87;;;35.37;;
7213;SDS011;3648;50.614;13.830;2022-11-21T02:46:05;64.40;;;33.97;;
7213;SDS011;3648;50.614;13.830;2022-11-21T02:48:32;67.53;;;34.37;;
7213;SDS011;3648;50.614;13.830;2022-11-21T02:51:00;72.67;;;35.60;;
7213;SDS011;3648;50.614;13.830;2022-11-21T02:53:27;76.37;;;37.03;;
7213;SDS011;3648;50.614;13.830;2022-11-21T02:55:53;76.70;;;35.53;;
7213;SDS011;3648;50.614;13.830;2022-11-21T02:58:20;77.70;;;37.20;;
7213;SDS011;3648;50.614;13.830;2022-11-21T03:00:49;85.97;;;39.20;;
7213;SDS011;3648;50.614;13.830;2022-11-21T03:03:16;82.33;;;38.83;;
7213;SDS011;3648;50.614;13.830;2022-11-21T03:05:43;80.43;;;39.03;;
7213;SDS011;3648;50.614;13.830;2022-11-21T03:08:10;84.07;;;37.93;;
7213;SDS011;3648;50.614;13.830;2022-11-21T03:10:37;75.57;;;37.67;;
7213;SDS011;3648;50.614;13.830;2022-11-21T03:13:04;71.27;;;36.97;;
7213;SDS011;3648;50.614;13.830;2022-11-21T03:15:31;78.00;;;38.27;;
7213;SDS011;3648;50.614;13.830;2022-11-21T03:18:00;73.57;;;37.67;;
7213;SDS011;3648;50.614;13.830;2022-11-21T03:20:28;66.20;;;35.90;;
7213;SDS011;3648;50.614;13.830;2022-11-21T03:22:56;72.83;;;36.40;;
7213;SDS011;3648;50.614;13.830;2022-11-21T03:25:22;72.23;;;36.20;;
7213;SDS011;3648;50.614;13.830;2022-11-21T03:27:50;68.33;;;34.27;;
7213;SDS011;3648;50.614;13.830;2022-11-21T03:30:18;77.23;;;36.00;;
7213;SDS011;3648;50.614;13.830;2022-11-21T03:32:45;69.47;;;35.20;;
7213;SDS011;3648;50.614;13.830;2022-11-21T03:35:14;89.97;;;41.07;;
7213;SDS011;3648;50.614;13.830;2022-11-21T03:37:41;75.77;;;38.70;;
7213;SDS011;3648;50.614;13.830;2022-11-21T03:40:08;74.03;;;37.50;;
7213;SDS011;3648;50.614;13.830;2022-11-21T03:42:36;69.93;;;36.23;;
7213;SDS011;3648;50.614;13.830;2022-11-21T03:45:03;66.97;;;34.43;;
7213;SDS011;3648;50.614;13.830;2022-11-21T03:47:31;79.53;;;38.13;;
7213;SDS011;3648;50.614;13.830;2022-11-21T03:49:58;67.87;;;35.10;;
7213;SDS011;3648;50.614;13.830;2022-11-21T03:52:26;75.33;;;38.23;;
7213;SDS011;3648;50.614;13.830;2022-11-21T03:54:53;78.83;;;36.77;;
7213;SDS011;3648;50.614;13.830;2022-11-21T03:57:20;72.47;;;35.77;;
7213;SDS011;3648;50.614;13.830;2022-11-21T03:59:47;73.67;;;36.23;;
7213;SDS011;3648;50.614;13.830;2022-11-21T04:02:14;84.53;;;42.43;;
7213;SDS011;3648;50.614;13.830;2022-11-21T04:04:41;76.47;;;39.70;;
7213;SDS011;3648;50.614;13.830;2022-11-21T04:07:07;73.60;;;38.23;;
7213;SDS011;3648;50.614;13.830;2022-11-21T04:09:36;79.37;;;36.97;;
7213;SDS011;3648;50.614;13.830;2022-11-21T04:12:03;68.73;;;36.00;;
7213;SDS011;3648;50.614;13.830;2022-11-21T04:14:30;76.93;;;37.57;;
7213;SDS011;3648;50.614;13.830;2022-11-21T04:16:57;80.27;;;35.47;;
7213;SDS011;3648;50.614;13.830;2022-11-21T04:19:24;76.10;;;36.83;;
7213;SDS011;3648;50.614;13.830;2022-11-21T04:21:51;76.27;;;37.00;;
7213;SDS011;3648;50.614;13.830;2022-11-21T04:24:18;73.90;;;37.27;;
7213;SDS011;3648;50.614;13.830;2022-11-21T04:26:46;72.77;;;38.43;;
7213;SDS011;3648;50.614;13.830;2022-11-21T04:29:13;80.43;;;37.03;;
7213;SDS011;3648;50.614;13.830;2022-11-21T04:31:40;67.53;;;35.33;;
7213;SDS011;3648;50.614;13.830;2022-11-21T04:34:07;72.27;;;35.13;;
7213;SDS011;3648;50.614;13.830;2022-11-21T04:36:34;72.67;;;36.23;;
7213;SDS011;3648;50.614;13.830;2022-11-21T04:39:01;65.20;;;33.90;;
7213;SDS011;3648;50.614;13.830;2022-11-21T04:41:28;82.67;;;36.87;;
7213;SDS011;3648;50.614;13.830;2022-11-21T04:43:56;74.47;;;37.50;;
7213;SDS011;3648;50.614;13.830;2022-11-21T04:46:23;76.63;;;37.37;;
7213;SDS011;3648;50.614;13.830;2022-11-21T04:48:50;69.40;;;34.87;;
7213;SDS011;3648;50.614;13.830;2022-11-21T04:51:17;70.23;;;35.87;;
7213;SDS011;3648;50.614;13.830;2022-11-21T04:53:44;72.47;;;35.97;;
7213;SDS011;3648;50.614;13.830;2022-11-21T04:56:11;72.17;;;36.87;;
7213;SDS011;3648;50.614;13.830;2022-11-21T04:58:40;71.53;;;34.77;;
7213;SDS011;3648;50.614;13.830;2022-11-21T05:01:10;67.13;;;36.30;;
7213;SDS011;3648;50.614;13.830;2022-11-21T05:03:37;69.20;;;35.37;;
7213;SDS011;3648;50.614;13.830;2022-11-21T05:06:04;71.67;;;35.50;;
7213;SDS011;3648;50.614;13.830;2022-11-21T05:08:31;74.63;;;35.77;;
7213;SDS011;3648;50.614;13.830;2022-11-21T05:10:58;71.33;;;34.83;;
7213;SDS011;3648;50.614;13.830;2022-11-21T05:13:53;66.73;;;34.17;;
7213;SDS011;3648;50.614;13.830;2022-11-21T05:16:22;68.13;;;34.30;;
7213;SDS011;3648;50.614;13.830;2022-11-21T05:18:49;70.73;;;36.10;;
7213;SDS011;3648;50.614;13.830;2022-11-21T05:21:16;61.73;;;33.10;;
7213;SDS011;3648;50.614;13.830;2022-11-21T05:23:43;71.13;;;34.90;;
7213;SDS011;3648;50.614;13.830;2022-11-21T05:26:10;73.20;;;35.37;;
7213;SDS011;3648;50.614;13.830;2022-11-21T05:28:37;66.83;;;33.43;;
7213;SDS011;3648;50.614;13.830;2022-11-21T05:31:04;72.90;;;35.10;;
7213;SDS011;3648;50.614;13.830;2022-11-21T05:33:32;71.10;;;36.03;;
7213;SDS011;3648;50.614;13.830;2022-11-21T05:35:59;81.00;;;37.27;;
7213;SDS011;3648;50.614;13.830;2022-11-21T05:38:26;73.83;;;36.63;;
7213;SDS011;3648;50.614;13.830;2022-11-21T05:40:53;64.90;;;33.13;;
7213;SDS011;3648;50.614;13.830;2022-11-21T05:43:20;77.70;;;37.23;;
7213;SDS011;3648;50.614;13.830;2022-11-21T05:46:13;77.73;;;37.83;;
7213;SDS011;3648;50.614;13.830;2022-11-21T05:48:43;71.43;;;34.97;;
7213;SDS011;3648;50.614;13.830;2022-11-21T05:51:11;81.47;;;41.80;;
7213;SDS011;3648;50.614;13.830;2022-11-21T05:53:39;72.87;;;37.80;;
7213;SDS011;3648;50.614;13.830;2022-11-21T05:56:06;66.67;;;33.50;;
7213;SDS011;3648;50.614;13.830;2022-11-21T05:58:34;79.83;;;36.97;;
7213;SDS011;3648;50.614;13.830;2022-11-21T06:01:01;62.90;;;32.73;;
7213;SDS011;3648;50.614;13.830;2022-11-21T06:03:30;68.00;;;34.20;;
7213;SDS011;3648;50.614;13.830;2022-11-21T06:06:00;73.10;;;33.67;;
7213;SDS011;3648;50.614;13.830;2022-11-21T06:08:32;61.17;;;33.97;;
7213;SDS011;3648;50.614;13.830;2022-11-21T06:11:01;66.80;;;35.43;;
7213;SDS011;3648;50.614;13.830;2022-11-21T06:13:28;66.20;;;35.17;;
7213;SDS011;3648;50.614;13.830;2022-11-21T06:15:57;65.13;;;34.57;;
7213;SDS011;3648;50.614;13.830;2022-11-21T06:18:26;71.00;;;35.03;;
7213;SDS011;3648;50.614;13.830;2022-11-21T06:20:54;68.33;;;35.50;;
7213;SDS011;3648;50.614;13.830;2022-11-21T06:23:27;67.50;;;35.47;;
7213;SDS011;3648;50.614;13.830;2022-11-21T06:25:55;72.10;;;36.63;;
7213;SDS011;3648;50.614;13.830;2022-11-21T06:28:23;65.73;;;33.77;;
7213;SDS011;3648;50.614;13.830;2022-11-21T06:30:50;59.90;;;33.40;;
7213;SDS011;3648;50.614;13.830;2022-11-21T06:33:17;73.33;;;38.83;;
7213;SDS011;3648;50.614;13.830;2022-11-21T06:35:44;75.23;;;38.93;;
7213;SDS011;3648;50.614;13.830;2022-11-21T06:38:13;76.13;;;39.63;;
7213;SDS011;3648;50.614;13.830;2022-11-21T06:40:42;85.40;;;41.97;;
7213;SDS011;3648;50.614;13.830;2022-11-21T06:43:09;89.43;;;46.43;;
7213;SDS011;3648;50.614;13.830;2022-11-21T06:45:36;78.93;;;42.47;;
7213;SDS011;3648;50.614;13.830;2022-11-21T06:48:03;103.77;;;55.27;;
7213;SDS011;3648;50.614;13.830;2022-11-21T06:50:31;83.23;;;45.47;;
7213;SDS011;3648;50.614;13.830;2022-11-21T06:52:58;72.93;;;38.33;;
7213;SDS011;3648;50.614;13.830;2022-11-21T06:55:27;73.73;;;38.00;;
7213;SDS011;3648;50.614;13.830;2022-11-21T06:57:55;68.00;;;36.63;;
7213;SDS011;3648;50.614;13.830;2022-11-21T07:00:23;70.90;;;36.77;;
7213;SDS011;3648;50.614;13.830;2022-11-21T07:02:52;70.43;;;36.27;;
7213;SDS011;3648;50.614;13.830;2022-11-21T07:05:19;71.37;;;36.93;;
7213;SDS011;3648;50.614;13.830;2022-11-21T07:07:46;76.30;;;37.67;;
7213;SDS011;3648;50.614;13.830;2022-11-21T07:10:13;67.40;;;35.97;;
7213;SDS011;3648;50.614;13.830;2022-11-21T07:12:42;70.80;;;35.57;;
7213;SDS011;3648;50.614;13.830;2022-11-21T07:15:31;68.53;;;36.00;;
7213;SDS011;3648;50.614;13.830;2022-11-21T07:17:58;74.70;;;35.63;;
7213;SDS011;3648;50.614;13.830;2022-11-21T07:20:25;67.73;;;34.93;;
7213;SDS011;3648;50.614;13.830;2022-11-21T07:22:52;70.63;;;35.43;;
7213;SDS011;3648;50.614;13.830;2022-11-21T07:25:20;64.57;;;33.47;;
7213;SDS011;3648;50.614;13.830;2022-11-21T07:27:48;77.17;;;36.30;;
7213;SDS011;3648;50.614;13.830;2022-11-21T07:30:15;67.60;;;34.90;;
7213;SDS011;3648;50.614;13.830;2022-11-21T07:32:42;67.90;;;32.83;;
7213;SDS011;3648;50.614;13.830;2022-11-21T07:35:09;62.50;;;32.53;;
7213;SDS011;3648;50.614;13.830;2022-11-21T07:37:36;63.20;;;33.97;;
7213;SDS011;3648;50.614;13.830;2022-11-21T07:40:05;62.17;;;33.27;;
7213;SDS011;3648;50.614;13.830;2022-11-21T07:42:33;66.00;;;32.77;;
7213;SDS011;3648;50.614;13.830;2022-11-21T07:45:02;58.87;;;33.17;;
7213;SDS011;3648;50.614;13.830;2022-11-21T07:47:29;55.10;;;31.47;;
7213;SDS011;3648;50.614;13.830;2022-11-21T07:49:56;63.23;;;32.80;;
7213;SDS011;3648;50.614;13.830;2022-11-21T07:52:23;63.50;;;34.30;;
7213;SDS011;3648;50.614;13.830;2022-11-21T07:54:51;64.50;;;33.13;;
7213;SDS011;3648;50.614;13.830;2022-11-21T07:57:18;64.93;;;33.50;;
7213;SDS011;3648;50.614;13.830;2022-11-21T07:59:45;68.10;;;36.50;;
7213;SDS011;3648;50.614;13.830;2022-11-21T08:02:16;68.73;;;35.27;;
7213;SDS011;3648;50.614;13.830;2022-11-21T08:04:45;65.07;;;35.50;;
7213;SDS011;3648;50.614;13.830;2022-11-21T08:07:12;77.27;;;39.57;;
7213;SDS011;3648;50.614;13.830;2022-11-21T08:09:39;77.07;;;41.00;;
7213;SDS011;3648;50.614;13.830;2022-11-21T08:12:06;68.20;;;40.70;;
7213;SDS011;3648;50.614;13.830;2022-11-21T08:14:33;70.40;;;40.20;;
7213;SDS011;3648;50.614;13.830;2022-11-21T08:17:00;62.90;;;37.03;;
7213;SDS011;3648;50.614;13.830;2022-11-21T08:19:29;68.80;;;37.40;;
7213;SDS011;3648;50.614;13.830;2022-11-21T08:21:56;71.00;;;37.00;;
7213;SDS011;3648;50.614;13.830;2022-11-21T08:24:23;68.37;;;37.77;;
7213;SDS011;3648;50.614;13.830;2022-11-21T08:26:53;59.30;;;35.33;;
7213;SDS011;3648;50.614;13.830;2022-11-21T08:29:20;66.93;;;35.37;;
7213;SDS011;3648;50.614;13.830;2022-11-21T08:31:47;64.77;;;34.70;;
7213;SDS011;3648;50.614;13.830;2022-11-21T08:34:14;62.27;;;36.30;;
7213;SDS011;3648;50.614;13.830;2022-11-21T08:36:42;66.50;;;35.40;;
7213;SDS011;3648;50.614;13.830;2022-11-21T08:39:09;60.80;;;34.83;;
7213;SDS011;3648;50.614;13.830;2022-11-21T08:41:36;58.00;;;34.00;;
7213;SDS011;3648;50.614;13.830;2022-11-21T08:44:20;63.30;;;36.40;;
7213;SDS011;3648;50.614;13.830;2022-11-21T08:46:47;68.07;;;38.30;;
7213;SDS011;3648;50.614;13.830;2022-11-21T08:49:14;78.70;;;42.37;;
7213;SDS011;3648;50.614;13.830;2022-11-21T08:51:44;68.67;;;40.00;;
7213;SDS011;3648;50.614;13.830;2022-11-21T08:54:13;108.47;;;53.47;;
7213;SDS011;3648;50.614;13.830;2022-11-21T08:56:40;88.77;;;44.17;;
7213;SDS011;3648;50.614;13.830;2022-11-21T08:59:07;78.13;;;41.27;;
7213;SDS011;3648;50.614;13.830;2022-11-21T09:01:36;96.27;;;47.97;;
7213;SDS011;3648;50.614;13.830;2022-11-21T09:04:04;89.17;;;43.57;;
7213;SDS011;3648;50.614;13.830;2022-11-21T09:06:31;79.33;;;41.63;;
7213;SDS011;3648;50.614;13.830;2022-11-21T09:09:00;74.30;;;42.20;;
7213;SDS011;3648;50.614;13.830;2022-11-21T09:11:27;71.53;;;39.67;;
7213;SDS011;3648;50.614;13.830;2022-11-21T09:13:55;68.83;;;40.57;;
7213;SDS011;3648;50.614;13.830;2022-11-21T09:16:41;66.77;;;40.13;;
7213;SDS011;3648;50.614;13.830;2022-11-21T09:19:25;69.73;;;37.53;;
7213;SDS011;3648;50.614;13.830;2022-11-21T09:21:52;60.50;;;35.10;;
7213;SDS011;3648;50.614;13.830;2022-11-21T09:24:20;62.67;;;36.73;;
7213;SDS011;3648;50.614;13.830;2022-11-21T09:26:47;59.70;;;33.53;;
7213;SDS011;3648;50.614;13.830;2022-11-21T09:29:14;63.10;;;35.03;;
7213;SDS011;3648;50.614;13.830;2022-11-21T09:31:41;64.70;;;38.63;;
7213;SDS011;3648;50.614;13.830;2022-11-21T09:34:09;56.60;;;33.60;;
7213;SDS011;3648;50.614;13.830;2022-11-21T09:36:36;71.60;;;36.97;;
7213;SDS011;3648;50.614;13.830;2022-11-21T09:39:03;66.37;;;37.07;;
7213;SDS011;3648;50.614;13.830;2022-11-21T09:41:33;62.33;;;35.00;;
7213;SDS011;3648;50.614;13.830;2022-11-21T09:44:20;73.20;;;39.10;;
7213;SDS011;3648;50.614;13.830;2022-11-21T09:46:58;92.43;;;48.60;;
7213;SDS011;3648;50.614;13.830;2022-11-21T09:49:39;110.60;;;53.97;;
7213;SDS011;3648;50.614;13.830;2022-11-21T09:52:09;102.63;;;49.77;;
7213;SDS011;3648;50.614;13.830;2022-11-21T09:54:39;110.47;;;51.20;;
7213;SDS011;3648;50.614;13.830;2022-11-21T09:57:15;120.67;;;58.67;;
7213;SDS011;3648;50.614;13.830;2022-11-21T09:59:46;88.10;;;45.67;;
7213;SDS011;3648;50.614;13.830;2022-11-21T10:02:15;89.40;;;46.40;;
7213;SDS011;3648;50.614;13.830;2022-11-21T10:04:44;77.23;;;43.80;;
7213;SDS011;3648;50.614;13.830;2022-11-21T10:07:14;85.53;;;44.40;;
7213;SDS011;3648;50.614;13.830;2022-11-21T10:09:51;75.67;;;38.00;;
7213;SDS011;3648;50.614;13.830;2022-11-21T10:12:42;96.03;;;41.63;;
7213;SDS011;3648;50.614;13.830;2022-11-21T10:15:20;84.30;;;39.27;;
7213;SDS011;3648;50.614;13.830;2022-11-21T10:18:00;77.77;;;40.03;;
7213;SDS011;3648;50.614;13.830;2022-11-21T10:20:42;106.13;;;49.87;;
7213;SDS011;3648;50.614;13.830;2022-11-21T10:23:31;97.47;;;44.53;;
7213;SDS011;3648;50.614;13.830;2022-11-21T10:26:13;81.63;;;39.83;;
7213;SDS011;3648;50.614;13.830;2022-11-21T10:28:44;80.93;;;38.10;;
7213;SDS011;3648;50.614;13.830;2022-11-21T10:31:17;68.47;;;36.23;;
7213;SDS011;3648;50.614;13.830;2022-11-21T10:33:46;56.87;;;32.37;;
7213;SDS011;3648;50.614;13.830;2022-11-21T10:36:21;64.93;;;34.93;;
7213;SDS011;3648;50.614;13.830;2022-11-21T10:38:52;61.50;;;33.53;;
7213;SDS011;3648;50.614;13.830;2022-11-21T10:41:29;33.93;;;19.90;;
7213;SDS011;3648;50.614;13.830;2022-11-21T10:44:08;24.70;;;14.50;;
7213;SDS011;3648;50.614;13.830;2022-11-21T10:47:00;22.67;;;11.80;;
7213;SDS011;3648;50.614;13.830;2022-11-21T10:49:28;16.83;;;10.70;;
7213;SDS011;3648;50.614;13.830;2022-11-21T10:51:59;17.50;;;9.70;;
7213;SDS011;3648;50.614;13.830;2022-11-21T10:54:32;11.80;;;8.00;;
7213;SDS011;3648;50.614;13.830;2022-11-21T10:56:59;10.47;;;6.67;;
7213;SDS011;3648;50.614;13.830;2022-11-21T10:59:33;10.00;;;7.30;;
7213;SDS011;3648;50.614;13.830;2022-11-21T11:02:00;10.47;;;7.10;;
7213;SDS011;3648;50.614;13.830;2022-11-21T11:04:36;11.67;;;7.77;;
7213;SDS011;3648;50.614;13.830;2022-11-21T11:07:12;15.10;;;9.37;;
7213;SDS011;3648;50.614;13.830;2022-11-21T11:09:47;31.50;;;19.43;;
7213;SDS011;3648;50.614;13.830;2022-11-21T11:12:26;33.10;;;21.13;;
7213;SDS011;3648;50.614;13.830;2022-11-21T11:15:18;30.17;;;19.83;;
7213;SDS011;3648;50.614;13.830;2022-11-21T11:17:50;26.80;;;16.53;;
7213;SDS011;3648;50.614;13.830;2022-11-21T11:20:30;25.30;;;15.80;;
7213;SDS011;3648;50.614;13.830;2022-11-21T11:23:02;18.23;;;11.73;;
7213;SDS011;3648;50.614;13.830;2022-11-21T11:25:44;14.13;;;10.47;;
7213;SDS011;3648;50.614;13.830;2022-11-21T11:28:12;13.67;;;9.70;;
7213;SDS011;3648;50.614;13.830;2022-11-21T11:30:41;16.17;;;10.43;;
7213;SDS011;3648;50.614;13.830;2022-11-21T11:35:53;13.97;;;9.27;;
7213;SDS011;3648;50.614;13.830;2022-11-21T11:38:24;13.20;;;8.97;;
7213;SDS011;3648;50.614;13.830;2022-11-21T11:40:55;13.87;;;10.47;;
7213;SDS011;3648;50.614;13.830;2022-11-21T11:43:28;15.77;;;9.87;;
7213;SDS011;3648;50.614;13.830;2022-11-21T11:46:35;15.60;;;9.90;;
7213;SDS011;3648;50.614;13.830;2022-11-21T11:49:28;14.20;;;9.43;;
7213;SDS011;3648;50.614;13.830;2022-11-21T11:52:20;17.40;;;11.27;;
7213;SDS011;3648;50.614;13.830;2022-11-21T11:54:51;15.70;;;10.93;;
7213;SDS011;3648;50.614;13.830;2022-11-21T11:57:23;16.50;;;9.93;;
7213;SDS011;3648;50.614;13.830;2022-11-21T11:59:54;14.40;;;9.97;;
7213;SDS011;3648;50.614;13.830;2022-11-21T12:02:32;15.57;;;10.07;;
7213;SDS011;3648;50.614;13.830;2022-11-21T12:05:08;17.77;;;10.47;;
7213;SDS011;3648;50.614;13.830;2022-11-21T12:07:43;20.03;;;13.43;;
7213;SDS011;3648;50.614;13.830;2022-11-21T12:10:16;15.13;;;10.33;;
7213;SDS011;3648;50.614;13.830;2022-11-21T12:12:51;18.77;;;11.80;;
7213;SDS011;3648;50.614;13.830;2022-11-21T12:15:22;18.70;;;12.03;;
7213;SDS011;3648;50.614;13.830;2022-11-21T12:18:14;16.67;;;11.27;;
7213;SDS011;3648;50.614;13.830;2022-11-21T12:20:51;20.20;;;12.30;;
7213;SDS011;3648;50.614;13.830;2022-11-21T12:23:22;15.23;;;10.30;;
7213;SDS011;3648;50.614;13.830;2022-11-21T12:25:55;16.00;;;10.83;;
7213;SDS011;3648;50.614;13.830;2022-11-21T12:28:33;14.43;;;10.63;;
7213;SDS011;3648;50.614;13.830;2022-11-21T12:31:09;17.23;;;10.93;;
7213;SDS011;3648;50.614;13.830;2022-11-21T12:33:46;19.73;;;10.63;;
7213;SDS011;3648;50.614;13.830;2022-11-21T12:36:24;19.03;;;12.50;;
7213;SDS011;3648;50.614;13.830;2022-11-21T12:42:09;30.67;;;17.87;;
7213;SDS011;3648;50.614;13.830;2022-11-21T12:45:02;20.90;;;12.53;;
7213;SDS011;3648;50.614;13.830;2022-11-21T12:54:34;15.63;;;9.47;;
7213;SDS011;3648;50.614;13.830;2022-11-21T12:57:14;14.90;;;9.57;;
7213;SDS011;3648;50.614;13.830;2022-11-21T12:59:47;17.40;;;11.60;;
7213;SDS011;3648;50.614;13.830;2022-11-21T13:02:27;18.67;;;9.60;;
7213;SDS011;3648;50.614;13.830;2022-11-21T13:05:00;13.57;;;8.07;;
7213;SDS011;3648;50.614;13.830;2022-11-21T13:07:32;11.40;;;7.13;;
7213;SDS011;3648;50.614;13.830;2022-11-21T13:09:59;8.87;;;6.97;;
7213;SDS011;3648;50.614;13.830;2022-11-21T13:12:32;9.80;;;6.57;;
7213;SDS011;3648;50.614;13.830;2022-11-21T13:15:09;9.27;;;7.50;;
7213;SDS011;3648;50.614;13.830;2022-11-21T13:17:48;15.87;;;10.67;;
7213;SDS011;3648;50.614;13.830;2022-11-21T13:20:20;14.53;;;9.57;;
7213;SDS011;3648;50.614;13.830;2022-11-21T13:22:57;15.17;;;10.33;;
7213;SDS011;3648;50.614;13.830;2022-11-21T13:25:34;15.47;;;9.83;;
7213;SDS011;3648;50.614;13.830;2022-11-21T13:33:53;9.33;;;6.93;;
7213;SDS011;3648;50.614;13.830;2022-11-21T13:36:36;7.57;;;6.20;;
7213;SDS011;3648;50.614;13.830;2022-11-21T13:42:00;8.03;;;5.60;;
7213;SDS011;3648;50.614;13.830;2022-11-21T13:44:48;7.07;;;6.37;;
7213;SDS011;3648;50.614;13.830;2022-11-21T13:50:33;6.50;;;5.70;;
7213;SDS011;3648;50.614;13.830;2022-11-21T13:53:38;7.67;;;6.13;;
7213;SDS011;3648;50.614;13.830;2022-11-21T13:56:23;7.63;;;5.47;;
7213;SDS011;3648;50.614;13.830;2022-11-21T13:58:58;8.17;;;6.47;;
7213;SDS011;3648;50.614;13.830;2022-11-21T14:01:45;8.53;;;6.73;;
7213;SDS011;3648;50.614;13.830;2022-11-21T14:04:24;10.70;;;7.50;;
7213;SDS011;3648;50.614;13.830;2022-11-21T14:07:20;10.17;;;7.83;;
7213;SDS011;3648;50.614;13.830;2022-11-21T14:09:50;11.43;;;7.87;;
7213;SDS011;3648;50.614;13.830;2022-11-21T14:12:20;12.13;;;9.27;;
7213;SDS011;3648;50.614;13.830;2022-11-21T14:14:50;12.70;;;9.73;;
7213;SDS011;3648;50.614;13.830;2022-11-21T14:17:33;14.60;;;10.30;;
7213;SDS011;3648;50.614;13.830;2022-11-21T14:20:13;12.43;;;9.60;;
7213;SDS011;3648;50.614;13.830;2022-11-21T14:22:45;11.60;;;9.20;;
7213;SDS011;3648;50.614;13.830;2022-11-21T14:25:20;11.07;;;8.20;;
7213;SDS011;3648;50.614;13.830;2022-11-21T14:27:52;9.83;;;7.93;;
7213;SDS011;3648;50.614;13.830;2022-11-21T14:30:25;9.17;;;8.10;;
7213;SDS011;3648;50.614;13.830;2022-11-21T14:33:19;11.03;;;8.97;;
7213;SDS011;3648;50.614;13.830;2022-11-21T14:35:47;10.93;;;9.60;;
7213;SDS011;3648;50.614;13.830;2022-11-21T14:38:16;11.93;;;9.50;;
7213;SDS011;3648;50.614;13.830;2022-11-21T14:40:46;11.40;;;9.40;;
7213;SDS011;3648;50.614;13.830;2022-11-21T14:43:28;10.80;;;8.97;;
7213;SDS011;3648;50.614;13.830;2022-11-21T14:45:57;10.13;;;8.60;;
7213;SDS011;3648;50.614;13.830;2022-11-21T14:48:24;10.87;;;9.60;;
7213;SDS011;3648;50.614;13.830;2022-11-21T14:50:52;9.83;;;8.50;;
7213;SDS011;3648;50.614;13.830;2022-11-21T14:53:21;15.77;;;10.87;;
7213;SDS011;3648;50.614;13.830;2022-11-21T14:55:49;10.47;;;8.67;;
7213;SDS011;3648;50.614;13.830;2022-11-21T14:58:17;11.67;;;9.33;;
7213;SDS011;3648;50.614;13.830;2022-11-21T15:01:03;9.70;;;8.50;;
7213;SDS011;3648;50.614;13.830;2022-11-21T15:03:31;11.17;;;8.70;;
7213;SDS011;3648;50.614;13.830;2022-11-21T15:05:58;10.30;;;8.43;;
7213;SDS011;3648;50.614;13.830;2022-11-21T15:08:26;11.33;;;9.17;;
7213;SDS011;3648;50.614;13.830;2022-11-21T15:10:53;11.63;;;9.87;;
7213;SDS011;3648;50.614;13.830;2022-11-21T15:13:23;11.53;;;9.47;;
7213;SDS011;3648;50.614;13.830;2022-11-21T15:15:53;12.83;;;10.63;;
7213;SDS011;3648;50.614;13.830;2022-11-21T15:18:23;13.00;;;11.30;;
7213;SDS011;3648;50.614;13.830;2022-11-21T15:20:52;12.43;;;10.13;;